createdAt,value
2019-06-08T00:01:58.998Z,69.39
2019-06-08T00:04:34.378Z,69.33
2019-06-08T00:07:14.771Z,69.40
2019-06-08T00:09:50.252Z,69.27
2019-06-08T00:12:24.859Z,69.46
2019-06-08T00:14:59.671Z,69.74
2019-06-08T00:17:38.385Z,69.46
2019-06-08T00:20:10.594Z,69.36
2019-06-08T00:22:45.585Z,69.66
2019-06-08T00:25:20.830Z,69.91
2019-06-08T00:27:55.858Z,70.06
2019-06-08T00:30:30.776Z,70.09
2019-06-08T00:33:04.788Z,70.00
2019-06-08T00:35:39.334Z,69.79
2019-06-08T00:38:16.796Z,69.62
2019-06-08T00:40:51.321Z,69.66
2019-06-08T00:43:25.550Z,69.73
2019-06-08T00:46:01.770Z,69.91
2019-06-08T00:48:37.946Z,70.24
2019-06-08T00:51:11.933Z,70.45
2019-06-08T00:53:45.728Z,70.42
2019-06-08T00:56:19.969Z,70.34
2019-06-08T00:58:54.412Z,70.46
2019-06-08T01:01:30.785Z,70.51
2019-06-08T01:04:04.939Z,70.67
2019-06-08T01:06:40.033Z,70.69
2019-06-08T01:09:15.021Z,70.60
2019-06-08T01:11:50.424Z,71.01
2019-06-08T01:14:27.104Z,70.97
2019-06-08T01:17:03.200Z,71.05
2019-06-08T01:19:38.197Z,70.93
2019-06-08T01:22:12.455Z,71.28
2019-06-08T01:24:47.072Z,71.44
2019-06-08T01:27:23.832Z,71.45
2019-06-08T01:29:58.434Z,72.00
2019-06-08T01:32:34.080Z,72.06
2019-06-08T01:35:09.646Z,71.83
2019-06-08T01:37:44.109Z,71.75
2019-06-08T01:40:21.220Z,71.70
2019-06-08T01:42:56.121Z,72.14
2019-06-08T01:45:33.761Z,72.36
2019-06-08T01:48:19.942Z,72.64
2019-06-08T01:50:45.884Z,72.47
2019-06-08T01:53:19.780Z,72.65
2019-06-08T01:55:53.866Z,72.62
2019-06-08T01:58:29.484Z,72.67
2019-06-08T02:01:04.422Z,72.64
2019-06-08T02:03:39.855Z,72.23
2019-06-08T02:06:15.242Z,72.31
2019-06-08T02:08:49.503Z,72.12
2019-06-08T02:11:22.852Z,72.24
2019-06-08T02:13:58.778Z,72.23
2019-06-08T02:16:35.461Z,72.20
2019-06-08T02:19:10.565Z,72.46
2019-06-08T02:21:44.575Z,72.48
2019-06-08T02:24:35.461Z,72.58
2019-06-08T02:27:20.224Z,72.26
2019-06-08T02:31:11.571Z,71.77
2019-06-08T02:33:53.911Z,72.19
2019-06-08T02:36:38.085Z,72.33
2019-06-08T02:39:13.973Z,72.28
2019-06-08T02:41:49.553Z,72.31
2019-06-08T02:44:28.157Z,72.55
2019-06-08T02:47:04.157Z,72.63
2019-06-08T02:49:39.744Z,73.14
2019-06-08T02:52:29.879Z,73.82
2019-06-08T02:55:07.551Z,73.78
2019-06-08T02:57:44.710Z,74.04
2019-06-08T03:00:25.635Z,73.81
2019-06-08T03:03:08.568Z,73.88
2019-06-08T03:05:54.498Z,73.82
2019-06-08T03:08:32.389Z,73.76
2019-06-08T03:11:09.373Z,73.64
2019-06-08T03:13:47.017Z,73.79
2019-06-08T03:16:43.325Z,73.90
2019-06-08T03:19:56.394Z,73.61
2019-06-08T03:22:38.853Z,74.14
2019-06-08T03:25:22.643Z,74.72
2019-06-08T03:28:00.313Z,74.73
2019-06-08T03:30:44.587Z,74.64
2019-06-08T03:33:16.225Z,74.80
2019-06-08T03:35:56.824Z,74.70
2019-06-08T03:38:26.032Z,74.66
2019-06-08T03:41:02.203Z,74.68
2019-06-08T03:43:38.153Z,74.76
2019-06-08T03:46:16.543Z,74.91
2019-06-08T03:49:40.504Z,75.05
2019-06-08T03:52:05.786Z,75.16
2019-06-08T03:55:46.617Z,75.00
2019-06-08T03:58:28.857Z,75.04
2019-06-08T04:01:31.820Z,75.08
2019-06-08T04:04:07.191Z,74.99
2019-06-08T04:06:43.706Z,74.68
2019-06-08T04:09:18.555Z,75.01
2019-06-08T04:11:53.483Z,74.68
2019-06-08T04:14:28.379Z,74.65
2019-06-08T04:17:04.032Z,74.79
2019-06-08T04:20:01.620Z,74.22
2019-06-08T04:22:16.598Z,74.21
2019-06-08T04:24:50.702Z,73.65
2019-06-08T04:27:26.002Z,73.50
2019-06-08T04:30:01.740Z,73.19
2019-06-08T04:32:36.147Z,73.12
2019-06-08T04:35:11.041Z,73.08
2019-06-08T04:37:46.756Z,72.49
2019-06-08T04:40:21.060Z,73.12
2019-06-08T04:42:56.207Z,72.52
2019-06-08T04:45:32.032Z,72.64
2019-06-08T04:48:11.567Z,72.97
2019-06-08T04:50:47.411Z,73.24
2019-06-08T04:53:20.754Z,72.42
2019-06-08T04:55:54.055Z,72.39
2019-06-08T04:58:27.776Z,72.61
2019-06-08T05:01:01.372Z,72.86
2019-06-08T05:03:34.829Z,72.66
2019-06-08T05:06:08.332Z,73.00
2019-06-08T05:08:42.993Z,72.85
2019-06-08T05:11:16.527Z,72.66
2019-06-08T05:13:49.968Z,72.94
2019-06-08T05:16:23.389Z,73.30
2019-06-08T05:18:56.688Z,73.32
2019-06-08T05:21:30.064Z,72.73
2019-06-08T05:24:03.858Z,72.61
2019-06-08T05:26:39.641Z,71.89
2019-06-08T05:29:14.546Z,71.85
2019-06-08T05:31:49.617Z,70.76
2019-06-08T05:34:23.247Z,70.32
2019-06-08T05:36:56.603Z,69.69
2019-06-08T05:39:30.059Z,68.88
2019-06-08T05:42:03.406Z,68.60
2019-06-08T05:44:36.894Z,68.62
2019-06-08T05:47:11.937Z,67.43
2019-06-08T05:49:45.801Z,67.22
2019-06-08T05:52:19.423Z,66.46
2019-06-08T05:54:52.891Z,66.34
2019-06-08T05:57:26.439Z,66.19
2019-06-08T06:00:00.078Z,65.78
2019-06-08T06:02:33.481Z,65.64
2019-06-08T06:05:07.608Z,65.26
2019-06-08T06:07:41.136Z,64.33
2019-06-08T06:10:15.278Z,64.24
2019-06-08T06:12:49.086Z,64.14
2019-06-08T06:15:23.093Z,63.68
2019-06-08T06:17:56.587Z,63.50
2019-06-08T06:20:30.115Z,63.78
2019-06-08T06:23:03.703Z,64.30
2019-06-08T06:25:37.247Z,63.95
2019-06-08T06:28:10.469Z,65.09
2019-06-08T06:30:44.239Z,64.99
2019-06-08T06:33:17.913Z,64.27
2019-06-08T06:35:52.166Z,64.25
2019-06-08T06:38:25.657Z,64.71
2019-06-08T06:40:58.932Z,64.92
2019-06-08T06:43:32.296Z,64.77
2019-06-08T06:46:05.722Z,65.05
2019-06-08T06:48:39.039Z,65.04
2019-06-08T06:51:25.182Z,65.39
2019-06-08T06:53:48.801Z,65.48
2019-06-08T06:56:24.262Z,65.22
2019-06-08T06:58:57.640Z,64.76
2019-06-08T07:01:31.192Z,64.36
2019-06-08T07:04:04.583Z,63.55
2019-06-08T07:06:38.104Z,63.64
2019-06-08T07:09:11.638Z,63.41
2019-06-08T07:11:44.927Z,63.35
2019-06-08T07:14:18.251Z,62.39
2019-06-08T07:16:51.985Z,61.08
2019-06-08T07:19:25.545Z,60.83
2019-06-08T07:21:58.845Z,60.34
2019-06-08T07:24:33.363Z,60.06
2019-06-08T07:27:07.664Z,58.84
2019-06-08T07:29:41.596Z,58.95
2019-06-08T07:32:14.978Z,59.30
2019-06-08T07:34:49.915Z,59.70
2019-06-08T07:37:23.832Z,60.65
2019-06-08T07:39:57.646Z,60.65
2019-06-08T07:42:31.684Z,61.40
2019-06-08T07:45:05.314Z,61.60
2019-06-08T07:47:39.151Z,61.94
2019-06-08T07:50:13.155Z,61.69
2019-06-08T07:52:47.968Z,61.51
2019-06-08T07:55:38.294Z,60.72
2019-06-08T07:58:13.589Z,60.72
2019-06-08T08:00:47.101Z,60.83
2019-06-08T08:03:20.542Z,59.68
2019-06-08T08:05:55.029Z,60.10
2019-06-08T08:08:29.408Z,59.79
2019-06-08T08:11:03.670Z,59.79
2019-06-08T08:13:37.462Z,59.53
2019-06-08T08:16:11.153Z,59.09
2019-06-08T08:18:44.731Z,59.62
2019-06-08T08:21:23.219Z,59.23
2019-06-08T08:23:53.480Z,57.56
2019-06-08T08:26:28.129Z,57.56
2019-06-08T08:29:03.216Z,56.19
2019-06-08T08:31:38.672Z,56.19
2019-06-08T08:34:18.290Z,55.78
2019-06-08T08:36:54.159Z,55.63
2019-06-08T08:39:31.412Z,55.26
2019-06-08T08:42:17.983Z,55.26
2019-06-08T08:44:59.329Z,54.84
2019-06-08T08:47:38.433Z,54.59
2019-06-08T08:50:13.098Z,52.01
2019-06-08T08:52:47.702Z,52.01
2019-06-08T08:56:30.627Z,49.66
2019-06-08T08:59:30.845Z,49.43
2019-06-08T09:02:12.046Z,49.43
2019-06-08T09:04:49.123Z,47.96
2019-06-08T09:07:23.729Z,46.40
2019-06-08T09:10:03.518Z,46.40
2019-06-08T09:12:37.685Z,45.84
2019-06-08T09:15:13.257Z,45.84
2019-06-08T09:18:03.689Z,44.54
2019-06-08T09:20:47.762Z,44.47
2019-06-08T09:23:27.976Z,44.47
2019-06-08T09:27:09.532Z,44.87
2019-06-08T09:29:45.123Z,45.06
2019-06-08T09:32:18.826Z,44.52
2019-06-08T09:35:02.785Z,44.07
2019-06-08T09:37:37.485Z,44.80
2019-06-08T09:40:10.769Z,45.25
2019-06-08T09:42:45.100Z,44.89
2019-06-08T09:48:41.842Z,43.97
2019-06-08T09:51:29.175Z,43.27
2019-06-08T09:54:06.065Z,43.70
2019-06-08T09:56:38.138Z,43.62
2019-06-08T09:59:15.003Z,42.94
2019-06-08T10:01:47.120Z,42.94
2019-06-08T10:04:20.838Z,42.40
2019-06-08T10:06:54.560Z,41.52
2019-06-08T10:09:28.433Z,40.96
2019-06-08T10:12:04.597Z,40.96
2019-06-08T10:36:58.876Z,40.04
2019-06-08T10:39:32.492Z,41.24
2019-06-08T10:42:07.159Z,40.65
2019-06-08T10:44:40.634Z,40.80
2019-06-08T10:47:14.678Z,40.80
2019-06-08T10:49:49.028Z,42.07
2019-06-08T10:52:22.235Z,41.17
2019-06-08T10:54:55.322Z,40.54
2019-06-08T10:57:28.946Z,41.13
2019-06-08T11:00:12.422Z,41.13
2019-06-08T11:02:37.595Z,42.12
2019-06-08T11:05:14.045Z,42.23
2019-06-08T11:07:48.036Z,43.05
2019-06-08T11:10:21.461Z,43.19
2019-06-08T11:12:54.494Z,43.19
2019-06-08T11:15:29.856Z,43.28
2019-06-08T11:18:06.653Z,41.65
2019-06-08T11:20:38.209Z,41.65
2019-06-08T11:23:12.579Z,39.79
2019-06-08T11:25:45.978Z,39.79
2019-06-08T11:28:19.307Z,39.12
2019-06-08T11:30:52.479Z,39.12
2019-06-08T11:33:25.703Z,38.85
2019-06-08T11:36:02.972Z,38.69
2019-06-08T11:38:33.637Z,38.92
2019-06-08T11:41:12.182Z,39.14
2019-06-08T11:43:42.723Z,39.81
2019-06-08T11:46:18.991Z,40.52
2019-06-08T11:48:51.420Z,40.49
2019-06-08T11:51:24.548Z,41.49
2019-06-08T11:53:59.416Z,41.60
2019-06-08T11:56:33.885Z,40.99
2019-06-08T11:59:13.800Z,41.37
2019-06-08T12:01:51.536Z,41.50
2019-06-08T12:04:31.959Z,41.91
2019-06-08T12:07:31.590Z,43.21
2019-06-08T12:19:57.642Z,43.59
2019-06-08T12:22:30.819Z,44.06
2019-06-08T12:25:04.227Z,44.60
2019-06-08T12:27:40.134Z,44.94
2019-06-08T12:30:20.498Z,44.96
2019-06-08T13:01:40.611Z,45.58
2019-06-08T13:04:14.018Z,45.49
2019-06-08T13:06:48.336Z,46.08
2019-06-08T13:09:21.615Z,45.63
2019-06-08T13:11:57.018Z,46.26
2019-06-08T13:14:29.915Z,45.20
2019-06-08T13:17:03.191Z,45.08
2019-06-08T13:19:38.756Z,45.67
2019-06-08T13:22:12.746Z,44.86
2019-06-08T13:24:47.854Z,45.18
2019-06-08T13:27:23.025Z,45.68
2019-06-08T13:29:57.756Z,44.41
2019-06-08T13:32:30.804Z,44.72
2019-06-08T13:35:04.225Z,44.58
2019-06-08T13:37:39.031Z,45.24
2019-06-08T13:40:15.220Z,43.35
2019-06-08T13:42:51.225Z,43.75
2019-06-08T13:45:24.502Z,43.43
2019-06-08T13:47:58.692Z,41.31
2019-06-08T13:50:32.175Z,42.43
2019-06-08T13:53:10.620Z,41.43
2019-06-08T13:55:55.009Z,41.46
2019-06-08T13:58:22.282Z,42.72
2019-06-08T14:00:52.105Z,41.30
2019-06-08T14:03:27.553Z,41.54
2019-06-08T14:06:00.253Z,40.74
2019-06-08T14:08:34.043Z,39.95
2019-06-08T14:11:09.901Z,37.57
2019-06-08T14:13:43.217Z,37.57
2019-06-08T14:16:20.174Z,35.74
2019-06-08T14:18:51.572Z,35.74
2019-06-08T14:21:31.965Z,35.75
2019-06-08T14:24:00.849Z,35.05
2019-06-08T14:26:37.385Z,34.86
2019-06-08T14:29:10.047Z,34.86
2019-06-08T14:31:45.195Z,35.34
2019-06-08T14:34:21.805Z,33.24
2019-06-08T14:36:54.678Z,33.41
2019-06-08T14:39:31.021Z,33.07
2019-06-08T14:42:02.724Z,33.07
2019-06-08T14:44:38.067Z,31.37
2019-06-08T14:47:14.652Z,31.37
2019-06-08T14:49:48.974Z,31.08
2019-06-08T14:52:23.813Z,31.08
2019-06-08T14:54:58.659Z,31.50
2019-06-08T14:57:32.423Z,31.74
2019-06-08T15:00:09.637Z,31.74
2019-06-08T15:02:41.932Z,32.08
2019-06-08T15:05:18.159Z,31.12
2019-06-08T15:07:50.796Z,32.39
2019-06-08T15:10:24.057Z,32.17
2019-06-08T15:12:57.832Z,31.79
2019-06-08T15:15:32.281Z,31.79
2019-06-08T15:18:08.403Z,31.84
2019-06-08T15:20:40.678Z,32.20
2019-06-08T15:23:16.827Z,32.04
2019-06-08T15:25:50.059Z,32.64
2019-06-08T15:28:24.685Z,30.92
2019-06-08T15:31:00.048Z,31.48
2019-06-08T15:33:33.634Z,30.84
2019-06-08T15:36:08.530Z,31.94
2019-06-08T15:38:42.951Z,31.94
2019-06-08T15:41:18.052Z,32.15
2019-06-08T15:43:53.861Z,31.79
2019-06-08T15:46:28.561Z,31.45
2019-06-08T15:49:01.816Z,31.45
2019-06-08T15:51:40.160Z,32.31
2019-06-08T15:54:10.110Z,32.39
2019-06-08T15:56:49.441Z,31.82
2019-06-08T15:59:18.170Z,31.70
2019-06-08T16:01:51.439Z,31.87
2019-06-08T16:04:25.714Z,31.18
2019-06-08T16:06:59.253Z,31.21
2019-06-08T16:09:32.658Z,31.19
2019-06-08T16:12:06.072Z,30.87
2019-06-08T16:14:41.453Z,30.58
2019-06-08T16:17:14.644Z,31.63
2019-06-08T16:19:48.014Z,31.60
2019-06-08T16:22:21.189Z,31.45
2019-06-08T16:24:54.434Z,31.64
2019-06-08T16:27:27.739Z,31.43
2019-06-08T16:30:08.666Z,31.87
2019-06-08T16:32:36.603Z,31.11
2019-06-08T16:35:10.683Z,31.80
2019-06-08T16:37:43.980Z,32.24
2019-06-08T16:40:17.224Z,32.46
2019-06-08T16:42:50.891Z,32.34
2019-06-08T16:45:24.096Z,32.42
2019-06-08T16:47:57.367Z,32.16
2019-06-08T16:50:30.614Z,32.40
2019-06-08T16:53:03.858Z,32.35
2019-06-08T16:55:38.370Z,32.28
2019-06-08T16:58:11.875Z,31.97
2019-06-08T17:00:45.525Z,31.72
2019-06-08T17:03:18.885Z,32.14
2019-06-08T17:05:52.206Z,31.57
2019-06-08T17:08:25.407Z,31.77
2019-06-08T17:10:58.582Z,31.90
2019-06-08T17:13:31.985Z,32.42
2019-06-08T17:16:05.221Z,32.58
2019-06-08T17:18:38.567Z,32.07
2019-06-08T17:21:11.840Z,32.41
2019-06-08T17:23:44.966Z,32.58
2019-06-08T17:26:18.163Z,32.86
2019-06-08T17:28:51.331Z,33.03
2019-06-08T17:31:24.583Z,32.47
2019-06-08T17:33:57.887Z,33.17
2019-06-08T17:36:31.931Z,32.76
2019-06-08T17:39:06.722Z,32.60
2019-06-08T17:41:40.225Z,33.17
2019-06-08T17:44:13.533Z,33.33
2019-06-08T17:46:48.298Z,33.44
2019-06-08T17:49:22.972Z,33.75
2019-06-08T17:51:56.197Z,34.36
2019-06-08T17:54:29.387Z,33.71
2019-06-08T17:57:02.603Z,33.99
2019-06-08T17:59:35.875Z,34.25
2019-06-08T18:02:12.095Z,34.50
2019-06-08T18:04:44.936Z,34.69
2019-06-08T18:07:18.239Z,34.62
2019-06-08T18:09:51.612Z,34.75
2019-06-08T18:12:27.011Z,34.75
2019-06-08T18:14:59.659Z,35.09
2019-06-08T18:17:33.990Z,35.09
2019-06-08T18:20:08.394Z,35.74
2019-06-08T18:22:44.388Z,36.01
2019-06-08T18:25:18.071Z,36.66
2019-06-08T18:28:06.591Z,36.92
2019-06-08T18:30:27.605Z,37.29
2019-06-08T18:33:01.265Z,37.33
2019-06-08T18:35:37.357Z,37.10
2019-06-08T18:38:09.547Z,37.79
2019-06-08T18:40:43.471Z,37.77
2019-06-08T18:43:17.104Z,38.02
2019-06-08T18:45:51.923Z,38.24
2019-06-08T18:48:25.268Z,40.17
2019-06-08T18:50:58.537Z,39.35
2019-06-08T18:53:49.153Z,39.27
2019-06-08T18:56:12.355Z,39.90
2019-06-08T18:58:53.371Z,40.03
2019-06-08T19:01:27.511Z,40.22
2019-06-08T19:04:04.498Z,42.50
2019-06-08T19:06:40.564Z,40.80
2019-06-08T19:09:13.686Z,41.05
2019-06-08T19:11:48.709Z,40.61
2019-06-08T19:14:23.038Z,41.76
2019-06-08T19:16:58.144Z,40.82
2019-06-08T19:19:33.832Z,41.05
2019-06-08T19:22:10.249Z,40.53
2019-06-08T19:24:49.452Z,40.52
2019-06-08T19:27:21.852Z,40.69
2019-06-08T19:29:57.762Z,41.17
2019-06-08T19:32:30.951Z,43.17
2019-06-08T19:35:04.364Z,43.19
2019-06-08T19:37:39.666Z,43.37
2019-06-08T19:40:13.320Z,43.76
2019-06-08T19:42:55.440Z,44.15
2019-06-08T19:45:21.942Z,44.49
2019-06-08T19:47:58.151Z,44.69
2019-06-08T19:50:31.791Z,44.99
2019-06-08T19:53:07.362Z,45.52
2019-06-08T19:55:41.202Z,45.79
2019-06-08T19:58:14.677Z,46.24
2019-06-08T20:00:52.308Z,46.23
2019-06-08T20:03:22.894Z,46.78
2019-06-08T20:05:56.625Z,47.89
2019-06-08T20:08:32.513Z,48.42
2019-06-08T20:11:08.294Z,48.95
2019-06-08T20:13:45.351Z,48.48
2019-06-08T20:16:23.288Z,48.29
2019-06-08T20:18:58.606Z,48.03
2019-06-08T20:21:32.671Z,47.36
2019-06-08T20:24:10.151Z,48.13
2019-06-08T20:26:44.682Z,48.06
2019-06-08T20:29:20.082Z,47.49
2019-06-08T20:31:53.879Z,47.48
2019-06-08T20:34:27.282Z,47.71
2019-06-08T20:37:02.068Z,47.38
2019-06-08T20:39:38.011Z,47.31
2019-06-08T20:42:13.239Z,46.96
2019-06-08T20:44:51.567Z,47.08
2019-06-08T20:47:27.643Z,49.01
2019-06-08T20:50:02.744Z,50.41
2019-06-08T20:52:37.817Z,49.87
2019-06-08T20:55:13.859Z,48.13
2019-06-08T20:57:52.346Z,48.17
2019-06-08T21:00:30.818Z,47.83
2019-06-08T21:03:07.949Z,47.57
2019-06-08T21:11:19.706Z,48.30
2019-06-08T21:19:20.454Z,49.48
2019-06-08T21:21:59.150Z,50.88
2019-06-08T21:24:31.818Z,51.56
2019-06-08T21:27:08.006Z,51.80
2019-06-08T21:29:49.435Z,51.38
2019-06-08T21:32:17.677Z,52.11
2019-06-08T21:34:52.655Z,52.54
2019-06-08T21:37:28.857Z,52.53
2019-06-08T21:40:04.188Z,52.55
2019-06-08T21:42:37.695Z,52.44
2019-06-08T21:45:11.210Z,52.29
2019-06-08T21:47:44.502Z,51.86
2019-06-08T21:50:18.611Z,51.76
2019-06-08T21:52:53.182Z,51.63
2019-06-08T21:55:28.030Z,52.26
2019-06-08T21:58:02.070Z,52.70
2019-06-08T22:00:40.328Z,53.80
2019-06-08T22:03:12.519Z,54.57
2019-06-08T22:05:49.780Z,55.10
2019-06-08T22:08:23.594Z,54.42
2019-06-08T22:10:59.018Z,55.15
2019-06-08T22:13:31.796Z,55.28
2019-06-08T22:16:07.754Z,55.58
2019-06-08T22:18:39.938Z,55.34
2019-06-08T22:21:13.290Z,55.20
2019-06-08T22:23:47.647Z,55.11
2019-06-08T22:26:20.994Z,55.38
2019-06-08T22:28:55.368Z,55.92
2019-06-08T22:31:28.812Z,55.67
2019-06-08T22:34:04.972Z,55.36
2019-06-08T22:36:38.728Z,55.68
2019-06-08T22:39:12.038Z,56.51
2019-06-08T22:41:47.665Z,56.08
2019-06-08T22:44:20.606Z,56.08
2019-06-08T22:46:55.366Z,56.09
2019-06-08T22:49:29.345Z,56.40
2019-06-08T22:52:04.300Z,56.16
2019-06-08T22:54:38.444Z,56.07
2019-06-08T22:57:13.049Z,56.64
2019-06-08T22:59:48.914Z,57.55
2019-06-08T23:02:23.206Z,58.19
2019-06-08T23:04:59.531Z,58.56
2019-06-08T23:07:33.793Z,58.80
2019-06-08T23:10:09.003Z,58.53
2019-06-08T23:12:43.382Z,58.78
2019-06-08T23:15:18.353Z,59.04
2019-06-08T23:17:52.220Z,58.68
2019-06-08T23:20:27.619Z,58.37
2019-06-08T23:23:03.070Z,58.16
2019-06-08T23:25:37.481Z,58.77
2019-06-08T23:28:11.817Z,58.97
2019-06-08T23:31:01.156Z,59.09
2019-06-08T23:33:23.184Z,59.95
2019-06-08T23:36:35.187Z,60.96
2019-06-08T23:38:31.517Z,60.53
2019-06-08T23:41:05.602Z,60.70
2019-06-08T23:43:39.054Z,60.96
2019-06-08T23:46:12.515Z,61.23
2019-06-08T23:48:48.421Z,60.76
2019-06-08T23:51:21.183Z,60.40
2019-06-08T23:53:55.070Z,60.84
2019-06-08T23:56:31.044Z,60.47
2019-06-08T23:59:07.601Z,60.51
